createdAt,value
2023-03-21T00:00:40.482Z,98711.66
2023-03-21T00:03:08.878Z,98703.19
2023-03-21T00:05:49.638Z,98703.69
2023-03-21T00:08:17.560Z,98706.16
2023-03-21T00:10:45.231Z,98705.97
2023-03-21T00:13:13.613Z,98710.03
2023-03-21T00:16:05.625Z,98705.13
2023-03-21T00:18:48.886Z,98704.00
2023-03-21T00:21:42.321Z,98703.19
2023-03-21T00:24:08.046Z,98705.31
2023-03-21T00:26:35.956Z,98703.69
2023-03-21T00:29:03.346Z,98698.47
2023-03-21T00:31:30.750Z,98697.00
2023-03-21T00:33:58.066Z,98696.53
2023-03-21T00:36:28.335Z,98689.03
2023-03-21T00:38:56.020Z,98676.81
2023-03-21T00:41:40.926Z,98683.19
2023-03-21T00:44:15.765Z,98680.91
2023-03-21T00:46:54.422Z,98683.50
2023-03-21T00:49:24.695Z,98675.88
2023-03-21T00:51:53.327Z,98679.09
2023-03-21T00:54:20.849Z,98680.09
2023-03-21T00:56:48.365Z,98675.88
2023-03-21T00:59:16.681Z,98680.56
2023-03-21T01:01:46.760Z,98670.47
2023-03-21T01:04:16.737Z,98672.59
2023-03-21T01:06:45.281Z,98668.88
2023-03-21T01:09:20.750Z,98665.44
2023-03-21T01:11:49.505Z,98664.81
2023-03-21T01:14:22.861Z,98656.31
2023-03-21T01:16:53.419Z,98662.88
2023-03-21T01:19:44.254Z,98661.22
2023-03-21T01:22:16.232Z,98659.47
2023-03-21T01:24:53.810Z,98651.97
2023-03-21T01:27:22.996Z,98645.75
2023-03-21T01:29:50.983Z,98640.56
2023-03-21T01:32:18.476Z,98644.13
2023-03-21T01:34:46.070Z,98633.41
2023-03-21T01:37:14.561Z,98637.78
2023-03-21T01:39:47.434Z,98633.41
2023-03-21T01:42:15.546Z,98636.00
2023-03-21T01:45:06.054Z,98636.81
2023-03-21T01:47:42.159Z,98634.53
2023-03-21T01:50:25.755Z,98634.72
2023-03-21T01:53:18.761Z,98629.81
2023-03-21T01:55:47.849Z,98640.59
2023-03-21T01:58:30.091Z,98636.31
2023-03-21T02:01:06.583Z,98643.34
2023-03-21T02:03:50.864Z,98651.50
2023-03-21T02:06:46.806Z,98647.94
2023-03-21T02:09:48.891Z,98644.81
2023-03-21T02:12:20.589Z,98638.50
2023-03-21T02:14:51.635Z,98646.66
2023-03-21T02:18:00.676Z,98643.09
2023-03-21T02:20:54.505Z,98642.75
2023-03-21T02:24:02.031Z,98645.00
2023-03-21T02:26:42.300Z,98648.44
2023-03-21T02:29:30.535Z,98641.59
2023-03-21T02:32:17.876Z,98635.09
2023-03-21T02:35:51.886Z,98635.91
2023-03-21T02:38:36.689Z,98630.19
2023-03-21T02:41:19.601Z,98630.06
2023-03-21T02:44:34.925Z,98628.59
2023-03-21T02:47:11.825Z,98627.13
2023-03-21T02:50:02.759Z,98630.84
2023-03-21T02:52:39.483Z,98628.75
2023-03-21T02:55:37.357Z,98644.97
2023-03-21T02:58:13.473Z,98650.00
2023-03-21T03:00:55.353Z,98648.72
2023-03-21T03:03:35.153Z,98647.56
2023-03-21T03:06:17.884Z,98651.28
2023-03-21T03:09:12.472Z,98655.66
2023-03-21T03:11:44.577Z,98657.28
2023-03-21T03:15:02.810Z,98654.38
2023-03-21T03:17:51.138Z,98637.16
2023-03-21T03:20:33.137Z,98641.84
2023-03-21T03:23:27.878Z,98642.03
2023-03-21T03:26:23.464Z,98642.81
2023-03-21T03:29:01.164Z,98641.03
2023-03-21T03:31:37.795Z,98638.09
2023-03-21T03:34:16.683Z,98647.56
2023-03-21T03:36:51.772Z,98645.28
2023-03-21T03:39:19.290Z,98646.28
2023-03-21T03:42:21.907Z,98647.25
2023-03-21T03:44:59.807Z,98645.31
2023-03-21T03:47:37.801Z,98645.81
2023-03-21T03:50:48.108Z,98636.72
2023-03-21T03:53:42.728Z,98646.66
2023-03-21T03:56:12.589Z,98636.72
2023-03-21T03:58:45.658Z,98648.44
2023-03-21T04:01:17.651Z,98646.00
2023-03-21T04:03:54.490Z,98653.31
2023-03-21T04:06:24.443Z,98641.75
2023-03-21T04:08:52.861Z,98651.03
2023-03-21T04:11:20.970Z,98649.91
2023-03-21T04:13:52.527Z,98653.31
2023-03-21T04:16:24.267Z,98654.28
2023-03-21T04:18:52.541Z,98657.06
2023-03-21T04:21:21.661Z,98658.84
2023-03-21T04:23:49.039Z,98660.66
2023-03-21T04:26:16.810Z,98654.63
2023-03-21T04:28:54.513Z,98653.00
2023-03-21T04:31:27.251Z,98661.47
2023-03-21T04:34:12.407Z,98659.81
2023-03-21T04:36:47.440Z,98660.97
2023-03-21T04:39:16.192Z,98662.28
2023-03-21T04:41:48.200Z,98664.72
2023-03-21T04:44:17.533Z,98669.78
2023-03-21T04:46:45.426Z,98666.03
2023-03-21T04:49:13.797Z,98661.78
2023-03-21T04:51:45.242Z,98663.41
2023-03-21T04:56:43.010Z,98669.72
2023-03-21T04:59:14.552Z,98669.72
2023-03-21T05:01:43.974Z,98673.47
2023-03-21T05:04:14.786Z,98670.38
2023-03-21T05:06:43.130Z,98681.94
2023-03-21T05:09:11.461Z,98675.38
2023-03-21T05:11:41.288Z,98676.50
2023-03-21T05:14:15.588Z,98666.75
2023-03-21T05:16:48.704Z,98666.41
2023-03-21T05:19:19.356Z,98668.69
2023-03-21T05:21:48.879Z,98667.38
2023-03-21T05:24:28.776Z,98665.13
2023-03-21T05:26:56.503Z,98666.88
2023-03-21T05:29:33.810Z,98669.13
2023-03-21T05:32:04.442Z,98667.50
2023-03-21T05:34:32.181Z,98661.78
2023-03-21T05:37:00.555Z,98664.50
2023-03-21T05:39:38.290Z,98662.84
2023-03-21T05:42:12.641Z,98660.72
2023-03-21T05:44:40.690Z,98662.47
2023-03-21T05:47:10.027Z,98660.16
2023-03-21T05:49:45.807Z,98666.81
2023-03-21T05:52:13.704Z,98669.56
2023-03-21T05:54:41.090Z,98677.22
2023-03-21T05:57:09.003Z,98672.00
2023-03-21T05:59:49.934Z,98674.91
2023-03-21T06:02:19.291Z,98675.91
2023-03-21T06:04:48.160Z,98675.22
2023-03-21T06:07:15.775Z,98669.13
2023-03-21T06:09:43.331Z,98666.94
2023-03-21T06:12:12.928Z,98666.19
2023-03-21T06:15:08.928Z,98675.75
2023-03-21T06:17:51.335Z,98678.13
2023-03-21T06:20:19.015Z,98671.78
2023-03-21T06:22:51.840Z,98672.97
2023-03-21T06:25:19.431Z,98668.59
2023-03-21T06:27:46.917Z,98666.69
2023-03-21T06:30:16.154Z,98662.19
2023-03-21T06:32:55.620Z,98665.34
2023-03-21T06:35:23.063Z,98673.19
2023-03-21T06:37:51.084Z,98672.25
2023-03-21T06:40:20.056Z,98672.97
2023-03-21T06:42:47.646Z,98673.47
2023-03-21T06:45:15.580Z,98676.69
2023-03-21T06:47:43.646Z,98666.53
2023-03-21T06:50:20.473Z,98661.38
2023-03-21T06:52:48.792Z,98662.97
2023-03-21T06:55:19.351Z,98661.19
2023-03-21T06:57:47.276Z,98667.41
2023-03-21T07:00:15.721Z,98666.38
2023-03-21T07:02:47.879Z,98677.13
2023-03-21T07:05:19.584Z,98674.09
2023-03-21T07:07:46.972Z,98684.66
2023-03-21T07:10:14.798Z,98680.38
2023-03-21T07:12:55.222Z,98677.06
2023-03-21T07:15:29.891Z,98673.22
2023-03-21T07:17:57.298Z,98673.81
2023-03-21T07:20:26.714Z,98672.69
2023-03-21T07:22:54.157Z,98675.94
2023-03-21T07:25:22.260Z,98675.66
2023-03-21T07:27:50.747Z,98680.69
2023-03-21T07:30:18.628Z,98672.13
2023-03-21T07:32:47.605Z,98673.13
2023-03-21T07:35:17.730Z,98670.84
2023-03-21T07:37:45.480Z,98673.28
2023-03-21T07:40:17.232Z,98667.84
2023-03-21T07:42:45.780Z,98676.38
2023-03-21T07:45:21.227Z,98682.84
2023-03-21T07:47:49.807Z,98676.59
2023-03-21T07:50:18.078Z,98670.69
2023-03-21T07:52:45.413Z,98673.19
2023-03-21T07:55:13.174Z,98684.88
2023-03-21T07:57:41.074Z,98677.56
2023-03-21T08:00:09.629Z,98681.00
2023-03-21T08:02:45.854Z,98675.13
2023-03-21T08:05:13.331Z,98679.78
2023-03-21T08:07:40.776Z,98674.72
2023-03-21T08:10:10.780Z,98669.88
2023-03-21T08:12:38.114Z,98667.41
2023-03-21T08:15:06.291Z,98670.44
2023-03-21T08:17:33.729Z,98663.78
2023-03-21T08:20:01.071Z,98665.88
2023-03-21T08:22:28.420Z,98671.75
2023-03-21T08:24:55.930Z,98668.69
2023-03-21T08:27:23.323Z,98681.47
2023-03-21T08:29:50.868Z,98670.25
2023-03-21T08:32:19.408Z,98667.59
2023-03-21T08:34:46.879Z,98660.75
2023-03-21T08:37:14.604Z,98664.97
2023-03-21T08:39:42.100Z,98653.59
2023-03-21T08:42:09.718Z,98660.16
2023-03-21T08:44:38.939Z,98671.72
2023-03-21T08:47:06.601Z,98676.09
2023-03-21T08:49:36.325Z,98670.81
2023-03-21T08:52:06.210Z,98667.59
2023-03-21T08:54:33.638Z,98657.03
2023-03-21T08:57:01.061Z,98662.03
2023-03-21T08:59:28.401Z,98651.63
2023-03-21T09:01:55.863Z,98642.81
2023-03-21T09:04:27.371Z,98647.28
2023-03-21T09:06:56.317Z,98652.53
2023-03-21T09:09:25.263Z,98647.41
2023-03-21T09:11:52.699Z,98647.19
2023-03-21T09:14:21.913Z,98640.38
2023-03-21T09:16:52.109Z,98645.03
2023-03-21T09:19:19.818Z,98639.78
2023-03-21T09:21:47.873Z,98638.38
2023-03-21T09:24:15.585Z,98633.44
2023-03-21T09:26:44.279Z,98640.41
2023-03-21T09:29:11.750Z,98639.06
2023-03-21T09:31:40.138Z,98641.38
2023-03-21T09:34:07.664Z,98618.47
2023-03-21T09:36:36.310Z,98632.56
2023-03-21T09:39:04.840Z,98620.56
2023-03-21T09:42:12.654Z,98619.78
2023-03-21T09:45:06.267Z,98617.41
2023-03-21T09:47:49.747Z,98604.94
2023-03-21T09:50:33.858Z,98600.13
2023-03-21T09:53:09.927Z,98599.88
2023-03-21T09:55:41.299Z,98612.47
2023-03-21T09:58:29.156Z,98610.53
2023-03-21T10:01:28.351Z,98597.81
2023-03-21T10:04:00.655Z,98594.81
2023-03-21T10:06:30.693Z,98581.25
2023-03-21T10:09:16.756Z,98578.28
2023-03-21T10:12:03.179Z,98592.03
2023-03-21T10:14:34.918Z,98576.53
2023-03-21T10:17:43.467Z,98579.00
2023-03-21T10:20:14.408Z,98577.63
2023-03-21T10:22:46.062Z,98575.94
2023-03-21T10:25:34.605Z,98563.91
2023-03-21T10:28:05.605Z,98571.91
2023-03-21T10:30:48.127Z,98568.16
2023-03-21T10:33:26.469Z,98549.91
2023-03-21T10:36:01.147Z,98550.03
2023-03-21T10:38:29.973Z,98542.41
2023-03-21T10:40:57.474Z,98555.97
2023-03-21T10:43:27.584Z,98549.28
2023-03-21T10:45:56.293Z,98564.72
2023-03-21T10:48:25.124Z,98554.13
2023-03-21T10:50:56.189Z,98561.06
2023-03-21T10:53:35.673Z,98556.22
2023-03-21T10:56:10.049Z,98553.47
2023-03-21T10:58:47.488Z,98550.41
2023-03-21T11:01:30.569Z,98544.69
2023-03-21T11:04:01.639Z,98545.31
2023-03-21T11:06:33.595Z,98554.72
2023-03-21T11:09:09.719Z,98538.28
2023-03-21T11:12:10.037Z,98543.41
2023-03-21T11:14:51.022Z,98535.03
2023-03-21T11:17:18.318Z,98540.69
2023-03-21T11:20:11.323Z,98531.28
2023-03-21T11:22:44.455Z,98520.44
2023-03-21T11:25:21.339Z,98521.13
2023-03-21T11:27:53.066Z,98526.59
2023-03-21T11:30:27.163Z,98520.44
2023-03-21T11:32:58.748Z,98516.47
2023-03-21T11:35:35.736Z,98519.00
2023-03-21T11:38:05.645Z,98513.38
2023-03-21T11:40:36.934Z,98513.31
2023-03-21T11:43:30.509Z,98516.72
2023-03-21T11:46:13.325Z,98519.50
2023-03-21T11:48:45.397Z,98521.41
2023-03-21T11:51:46.457Z,98525.50
2023-03-21T11:54:37.058Z,98524.94
2023-03-21T11:57:37.327Z,98524.47
2023-03-21T12:00:32.678Z,98518.06
2023-03-21T12:04:02.996Z,98526.19
2023-03-21T12:06:37.863Z,98524.81
2023-03-21T12:09:31.305Z,98519.22
2023-03-21T12:12:39.996Z,98519.28
2023-03-21T12:15:27.114Z,98517.22
2023-03-21T12:18:26.397Z,98516.13
2023-03-21T12:20:59.727Z,98511.19
2023-03-21T12:23:56.134Z,98506.78
2023-03-21T12:26:32.400Z,98508.94
2023-03-21T12:29:17.064Z,98503.38
2023-03-21T12:32:06.640Z,98498.63
2023-03-21T12:35:16.929Z,98507.25
2023-03-21T12:38:17.426Z,98493.84
2023-03-21T12:41:04.807Z,98500.13
2023-03-21T12:43:47.278Z,98500.53
2023-03-21T12:46:43.277Z,98491.06
2023-03-21T12:49:22.980Z,98486.47
2023-03-21T12:52:05.656Z,98484.13
2023-03-21T12:54:46.823Z,98478.50
2023-03-21T12:57:26.437Z,98470.53
2023-03-21T13:00:11.049Z,98467.78
2023-03-21T13:02:46.979Z,98463.19
2023-03-21T13:05:40.727Z,98463.44
2023-03-21T13:08:21.410Z,98459.88
2023-03-21T13:10:49.477Z,98461.69
2023-03-21T13:13:37.448Z,98461.34
2023-03-21T13:16:36.627Z,98454.47
2023-03-21T13:19:15.757Z,98463.31
2023-03-21T13:21:55.385Z,98456.41
2023-03-21T13:24:49.528Z,98454.34
2023-03-21T13:27:33.665Z,98454.56
2023-03-21T13:30:07.301Z,98449.63
2023-03-21T13:32:44.694Z,98454.78
2023-03-21T13:35:33.922Z,98450.53
2023-03-21T13:38:12.958Z,98457.22
2023-03-21T13:40:52.114Z,98462.22
2023-03-21T13:43:51.644Z,98454.75
2023-03-21T13:46:24.990Z,98449.44
2023-03-21T13:48:59.716Z,98440.47
2023-03-21T13:51:36.534Z,98448.94
2023-03-21T13:54:24.381Z,98446.78
2023-03-21T13:57:01.246Z,98445.22
2023-03-21T13:59:40.891Z,98443.75
2023-03-21T14:02:32.895Z,98448.53
2023-03-21T14:05:17.749Z,98443.69
2023-03-21T14:07:52.904Z,98441.56
2023-03-21T14:10:43.472Z,98439.84
2023-03-21T14:13:19.278Z,98431.19
2023-03-21T14:16:03.572Z,98430.78
2023-03-21T14:19:02.806Z,98429.38
2023-03-21T14:21:35.801Z,98427.31
2023-03-21T14:24:14.502Z,98420.63
2023-03-21T14:26:48.128Z,98417.03
2023-03-21T14:29:27.097Z,98413.09
2023-03-21T14:32:00.322Z,98414.25
2023-03-21T14:34:32.357Z,98408.03
2023-03-21T14:36:59.903Z,98410.56
2023-03-21T14:39:32.323Z,98405.06
2023-03-21T14:42:07.183Z,98408.16
2023-03-21T14:44:53.953Z,98398.84
2023-03-21T14:47:25.666Z,98404.38
2023-03-21T14:49:54.436Z,98402.97
2023-03-21T14:52:31.760Z,98399.09
2023-03-21T14:55:01.776Z,98391.28
2023-03-21T14:57:33.404Z,98392.94
2023-03-21T15:00:12.705Z,98393.38
2023-03-21T15:02:44.634Z,98405.69
2023-03-21T15:05:29.233Z,98401.66
2023-03-21T15:08:19.326Z,98391.88
2023-03-21T15:11:11.745Z,98397.88
2023-03-21T15:13:54.862Z,98394.66
2023-03-21T15:16:23.402Z,98391.91
2023-03-21T15:18:52.136Z,98389.56
2023-03-21T15:21:50.547Z,98400.56
2023-03-21T15:24:33.462Z,98391.47
2023-03-21T15:27:06.345Z,98388.13
2023-03-21T15:29:36.954Z,98393.19
2023-03-21T15:32:11.549Z,98396.25
2023-03-21T15:34:39.343Z,98393.31
2023-03-21T15:37:17.143Z,98396.53
2023-03-21T15:39:45.835Z,98393.47
2023-03-21T15:42:38.909Z,98382.31
2023-03-21T15:45:27.578Z,98388.38
2023-03-21T15:48:09.137Z,98380.88
2023-03-21T15:50:47.190Z,98382.97
2023-03-21T15:53:18.677Z,98390.88
2023-03-21T15:55:53.211Z,98378.72
2023-03-21T15:58:25.849Z,98382.59
2023-03-21T16:01:06.432Z,98381.88
2023-03-21T16:03:40.562Z,98380.78
2023-03-21T16:06:11.351Z,98385.41
2023-03-21T16:08:52.272Z,98383.09
2023-03-21T16:11:22.584Z,98387.19
2023-03-21T16:13:51.471Z,98382.25
2023-03-21T16:16:28.577Z,98388.63
2023-03-21T16:19:00.472Z,98388.19
2023-03-21T16:21:31.428Z,98389.66
2023-03-21T16:23:58.942Z,98389.53
2023-03-21T16:26:43.583Z,98388.72
2023-03-21T16:29:14.642Z,98392.00
2023-03-21T16:31:42.279Z,98386.63
2023-03-21T16:34:10.819Z,98391.13
2023-03-21T16:36:41.681Z,98393.44
2023-03-21T16:39:27.080Z,98379.16
2023-03-21T16:41:54.524Z,98387.53
2023-03-21T16:44:22.137Z,98386.75
2023-03-21T16:46:49.575Z,98383.38
2023-03-21T16:49:26.835Z,98387.84
2023-03-21T16:51:56.617Z,98393.91
2023-03-21T16:54:24.144Z,98396.34
2023-03-21T16:56:58.779Z,98396.13
2023-03-21T16:59:26.239Z,98403.41
2023-03-21T17:01:53.593Z,98394.31
2023-03-21T17:04:22.133Z,98399.94
2023-03-21T17:06:53.018Z,98405.41
2023-03-21T17:09:26.244Z,98411.28
2023-03-21T17:11:53.644Z,98409.47
2023-03-21T17:14:22.170Z,98409.47
2023-03-21T17:16:49.989Z,98410.66
2023-03-21T17:19:26.505Z,98406.22
2023-03-21T17:21:55.206Z,98409.25
2023-03-21T17:24:23.860Z,98409.66
2023-03-21T17:26:52.437Z,98408.47
2023-03-21T17:29:19.934Z,98409.06
2023-03-21T17:31:50.277Z,98406.44
2023-03-21T17:34:18.102Z,98414.31
2023-03-21T17:36:48.770Z,98411.47
2023-03-21T17:39:26.622Z,98418.53
2023-03-21T17:41:55.337Z,98426.41
2023-03-21T17:44:22.941Z,98424.81
2023-03-21T17:46:51.949Z,98422.97
2023-03-21T17:49:21.142Z,98425.44
2023-03-21T17:51:48.845Z,98421.38
2023-03-21T17:54:16.242Z,98426.63
2023-03-21T17:56:43.664Z,98428.06
2023-03-21T17:59:15.419Z,98423.19
2023-03-21T18:01:43.181Z,98429.66
2023-03-21T18:04:11.228Z,98427.25
2023-03-21T18:06:39.731Z,98429.06
2023-03-21T18:09:11.442Z,98430.25
2023-03-21T18:11:39.987Z,98432.28
2023-03-21T18:14:16.178Z,98439.75
2023-03-21T18:16:45.820Z,98442.13
2023-03-21T18:19:13.577Z,98443.88
2023-03-21T18:21:44.698Z,98439.41
2023-03-21T18:24:13.294Z,98442.00
2023-03-21T18:26:41.522Z,98432.69
2023-03-21T18:30:17.531Z,98437.09
2023-03-21T18:32:06.918Z,98442.94
2023-03-21T18:34:38.980Z,98453.19
2023-03-21T18:37:09.131Z,98443.88
2023-03-21T18:39:38.317Z,98446.47
2023-03-21T18:42:06.975Z,98458.34
2023-03-21T18:44:45.508Z,98457.91
2023-03-21T18:47:14.565Z,98459.31
2023-03-21T18:50:13.166Z,98459.69
2023-03-21T18:52:29.549Z,98457.25
2023-03-21T18:54:57.579Z,98464.50
2023-03-21T18:57:36.447Z,98463.47
2023-03-21T19:00:12.607Z,98463.03
2023-03-21T19:02:48.095Z,98456.38
2023-03-21T19:05:18.672Z,98454.13
2023-03-21T19:07:47.820Z,98462.38
2023-03-21T19:10:20.285Z,98453.28
2023-03-21T19:12:49.960Z,98469.38
2023-03-21T19:15:21.388Z,98460.91
2023-03-21T19:20:42.150Z,98465.69
2023-03-21T19:23:10.829Z,98457.03
2023-03-21T19:25:38.418Z,98460.66
2023-03-21T19:28:06.322Z,98467.09
2023-03-21T19:30:34.779Z,98465.25
2023-03-21T19:33:02.211Z,98475.72
2023-03-21T19:35:29.687Z,98467.19
2023-03-21T19:37:57.047Z,98463.97
2023-03-21T19:40:24.602Z,98464.78
2023-03-21T19:42:52.768Z,98464.56
2023-03-21T19:45:20.193Z,98463.59
2023-03-21T19:47:47.670Z,98474.91
2023-03-21T19:53:03.317Z,98473.25
2023-03-21T19:55:31.044Z,98479.31
2023-03-21T19:57:58.565Z,98474.66
2023-03-21T20:00:26.051Z,98476.00
2023-03-21T20:02:53.644Z,98485.88
2023-03-21T20:05:22.098Z,98481.00
2023-03-21T20:07:50.034Z,98489.06
2023-03-21T20:10:17.615Z,98480.75
2023-03-21T20:12:46.130Z,98479.75
2023-03-21T20:15:19.488Z,98476.13
2023-03-21T20:17:49.434Z,98483.19
2023-03-21T20:20:18.708Z,98485.19
2023-03-21T20:23:07.887Z,98481.97
2023-03-21T20:25:41.017Z,98487.00
2023-03-21T20:28:24.346Z,98486.00
2023-03-21T20:31:00.549Z,98488.41
2023-03-21T20:33:29.221Z,98486.44
2023-03-21T20:36:47.933Z,98485.44
2023-03-21T20:38:52.668Z,98491.28
2023-03-21T20:41:20.702Z,98488.66
2023-03-21T20:46:37.696Z,98492.22
2023-03-21T20:49:08.764Z,98501.25
2023-03-21T20:54:23.786Z,98501.75
2023-03-21T20:56:51.153Z,98500.53
2023-03-21T20:59:26.498Z,98500.09
2023-03-21T21:01:57.410Z,98504.72
2023-03-21T21:04:48.259Z,98502.00
2023-03-21T21:07:21.149Z,98502.75
2023-03-21T21:09:50.048Z,98502.31
2023-03-21T21:12:19.326Z,98509.72
2023-03-21T21:14:48.286Z,98509.72
2023-03-21T21:17:31.155Z,98506.91
2023-03-21T21:20:16.959Z,98508.56
2023-03-21T21:22:58.861Z,98507.72
2023-03-21T21:25:26.704Z,98510.34
2023-03-21T21:27:54.107Z,98504.28
2023-03-21T21:30:21.510Z,98504.28
2023-03-21T21:32:49.618Z,98510.34
2023-03-21T21:35:19.513Z,98510.53
2023-03-21T21:37:47.034Z,98513.94
2023-03-21T21:40:20.236Z,98510.34
2023-03-21T21:42:47.836Z,98500.88
2023-03-21T21:45:15.957Z,98504.50
2023-03-21T21:47:46.293Z,98507.28
2023-03-21T21:50:14.566Z,98501.41
2023-03-21T21:52:43.970Z,98506.84
2023-03-21T21:55:13.337Z,98505.59
2023-03-21T21:57:41.022Z,98504.34
2023-03-21T22:00:13.569Z,98506.53
2023-03-21T22:02:42.123Z,98508.69
2023-03-21T22:05:10.547Z,98502.84
2023-03-21T22:07:39.055Z,98510.22
2023-03-21T22:10:07.082Z,98518.25
2023-03-21T22:12:34.705Z,98517.66
2023-03-21T22:15:04.047Z,98525.09
2023-03-21T22:17:31.697Z,98511.69
2023-03-21T22:20:06.080Z,98525.91
2023-03-21T22:22:34.796Z,98531.16
2023-03-21T22:25:04.189Z,98519.88
2023-03-21T22:27:31.977Z,98525.31
2023-03-21T22:30:04.910Z,98523.88
2023-03-21T22:32:36.720Z,98525.22
2023-03-21T22:35:06.230Z,98520.34
2023-03-21T22:37:36.365Z,98520.72
2023-03-21T22:40:08.059Z,98524.50
2023-03-21T22:42:37.498Z,98521.63
2023-03-21T22:45:06.425Z,98528.84
2023-03-21T22:47:34.257Z,98532.28
2023-03-21T22:50:02.112Z,98524.44
2023-03-21T22:52:29.607Z,98521.63
2023-03-21T22:54:57.033Z,98525.63
2023-03-21T22:57:25.664Z,98518.94
2023-03-21T22:59:53.275Z,98524.34
2023-03-21T23:02:20.665Z,98518.31
2023-03-21T23:04:47.989Z,98516.31
2023-03-21T23:07:15.605Z,98524.16
2023-03-21T23:09:43.782Z,98525.63
2023-03-21T23:12:11.173Z,98526.78
2023-03-21T23:14:38.493Z,98526.16
2023-03-21T23:17:05.826Z,98534.34
2023-03-21T23:19:33.295Z,98525.06
2023-03-21T23:22:01.300Z,98533.44
2023-03-21T23:24:28.657Z,98534.78
2023-03-21T23:26:56.049Z,98521.31
2023-03-21T23:29:23.359Z,98533.69
2023-03-21T23:31:50.895Z,98521.97
2023-03-21T23:34:18.602Z,98519.91
2023-03-21T23:36:46.098Z,98529.72
2023-03-21T23:39:13.567Z,98530.53
2023-03-21T23:41:42.803Z,98525.47
2023-03-21T23:44:10.270Z,98512.41
2023-03-21T23:46:37.896Z,98515.22
2023-03-21T23:49:05.913Z,98524.13
2023-03-21T23:51:33.441Z,98509.97
2023-03-21T23:54:00.872Z,98518.19
2023-03-21T23:56:28.811Z,98516.72
2023-03-21T23:58:57.927Z,98508.28
